Skip Navigation Links Skip Navigation Links

Current Weather

Port Auth-Dwntn-Manhattan/Wall St, New York

For information only: do not use for flight planning or navigation.
Latest weather
Observation time Saturday, June 6, 2020 6:56 PM EDT
Local time Saturday, June 6, 2020 8:01 PM EDT
Flight conditions Visual Meteorological Conditions
Winds
Wind direction variable
Wind speed 3 mph
Visibility 10 mi.
Sky condition
Ceiling unlimited
Cloud layer scattered clouds 11,000 ft.
Temperature 83°F
Dewpoint 54°F
Altimeter 29.72 in.Hg
Derived measurements
Relative humidity 37%
Heat index 83°F
Density altitude 1966 ft.
Sea-level pressure 29.72 in.Hg
Remarks
Fully automated report.
Automated weather observing station with precipitation discriminator.
METAR KJRB 062256Z AUTO VRB03KT 10SM SCT110 28/12 A2972 RMK AO2 SLP064 T02830122

Settings

Location code

InnerDrive.Weather 4.0.6770.0 Release CLR 4.0.30319.42000
Copyright ©2018 Inner Drive Technology. All rights reserved. Portions Copyright ©1986-2018 David Braverman.

Find weather

Site navigation


Skip Navigation Links

Place info

Page info

PayPal - The safer, easier way to pay online!

Return home.

Copyright ©2020 Inner Drive Technology. Purveyors of fine, hand-crafted computer software. Page printed 2020-06-07T00:01:05 UTC.